Time;durP1;ratioP1;P1;durP2;ratioP2;P2;SDS_P1;SDS_P2;PMS_P1;PMS_P2;Temp;Humidity;BMP_temperature;BMP_pressure;BME280_temperature;BME280_humidity;BME280_pressure;Samples;Min_cycle;Max_cycle;Signal;HPM_P1;HPM_P2
2022/06/26 00:00:24;;;;;;;7.40;4.60;;;;;;;22.24;46.16;100068.16;107836;1271;93568;-71
2022/06/26 00:03:09;;;;;;;5.80;4.80;;;;;;;22.21;46.36;100070.64;107776;1271;108845;-70
2022/06/26 00:05:41;;;;;;;7.30;4.80;;;;;;;22.16;46.39;100073.48;107187;1270;107814;-70
2022/06/26 00:08:14;;;;;;;7.80;5.20;;;;;;;22.13;46.52;100071.50;106305;1270;137715;-69
2022/06/26 00:10:47;;;;;;;5.90;5.10;;;;;;;22.09;46.57;100074.13;106433;1270;95785;-69
2022/06/26 00:13:20;;;;;;;8.20;5.30;;;;;;;22.05;46.62;100075.61;107157;1270;137357;-71
2022/06/26 00:15:52;;;;;;;6.90;4.50;;;;;;;22.00;46.86;100076.89;107903;1270;109803;-70
2022/06/26 00:18:25;;;;;;;6.20;5.20;;;;;;;21.96;46.86;100081.29;107911;1270;108876;-71
2022/06/26 00:20:58;;;;;;;13.30;5.10;;;;;;;21.93;46.72;100079.46;107750;1270;138752;-70
2022/06/26 00:23:30;;;;;;;8.30;5.10;;;;;;;21.90;47.07;100082.00;107875;1270;93329;-71
2022/06/26 00:26:02;;;;;;;5.90;5.30;;;;;;;21.87;47.11;100079.06;107775;1270;137587;-70
2022/06/26 00:28:35;;;;;;;7.80;5.00;;;;;;;21.84;47.17;100084.64;107895;1270;109713;-70
2022/06/26 00:31:07;;;;;;;8.60;5.40;;;;;;;21.81;47.08;100081.89;107780;1269;137472;-70
2022/06/26 00:33:39;;;;;;;8.70;4.90;;;;;;;21.77;47.47;100082.91;107276;1270;108875;-70
2022/06/26 00:36:12;;;;;;;6.60;4.90;;;;;;;21.74;47.44;100086.86;106218;1272;95154;-69
2022/06/26 00:38:45;;;;;;;7.80;5.10;;;;;;;21.72;47.57;100086.31;106128;1271;138498;-69
2022/06/26 00:41:17;;;;;;;7.10;4.90;;;;;;;21.68;47.41;100091.02;107814;1270;109818;-70
2022/06/26 00:43:50;;;;;;;7.40;5.60;;;;;;;21.64;47.63;100090.29;107771;1269;138055;-70
2022/06/26 00:46:25;;;;;;;6.90;5.10;;;;;;;21.62;47.91;100093.15;106967;1271;108787;-71
2022/06/26 00:48:58;;;;;;;5.90;5.10;;;;;;;21.59;47.90;100095.16;106211;1270;137532;-71
2022/06/26 00:51:30;;;;;;;7.30;5.50;;;;;;;21.56;47.76;100093.65;106459;1270;95107;-71
2022/06/26 00:54:03;;;;;;;6.10;5.50;;;;;;;21.52;48.04;100094.12;107882;1270;108655;-72
2022/06/26 00:56:36;;;;;;;9.80;5.60;;;;;;;21.49;47.94;100093.48;107614;1270;137872;-71
2022/06/26 00:59:08;;;;;;;8.60;5.10;;;;;;;21.46;48.08;100093.58;106537;1270;109172;-69
2022/06/26 01:01:40;;;;;;;8.80;5.20;;;;;;;21.43;48.06;100097.15;107746;1270;139199;-70
2022/06/26 01:04:13;;;;;;;9.90;6.00;;;;;;;21.40;48.19;100101.59;107749;1271;93068;-72
2022/06/26 01:06:46;;;;;;;9.20;5.80;;;;;;;21.38;48.14;100101.65;107780;1270;137757;-70
2022/06/26 01:09:18;;;;;;;7.80;5.50;;;;;;;21.36;48.27;100106.39;107891;1270;109150;-71
2022/06/26 01:11:51;;;;;;;7.30;5.20;;;;;;;21.33;48.46;100108.53;107869;1270;107393;-71
2022/06/26 01:14:24;;;;;;;7.50;5.50;;;;;;;21.31;48.32;100103.77;107739;1270;138277;-70
2022/06/26 01:16:59;;;;;;;8.40;5.50;;;;;;;21.29;48.65;100104.23;107826;1271;93377;-70
2022/06/26 01:19:32;;;;;;;6.70;5.10;;;;;;;21.27;48.71;100107.44;107785;1270;137196;-71
2022/06/26 01:22:04;;;;;;;6.40;5.10;;;;;;;21.25;48.61;100106.75;107863;1271;108819;-70
2022/06/26 01:24:37;;;;;;;6.40;5.30;;;;;;;21.22;48.65;100113.15;107808;1271;107352;-70
2022/06/26 01:27:10;;;;;;;10.10;5.40;;;;;;;21.17;48.95;100114.19;107844;1270;93373;-71
2022/06/26 01:29:42;;;;;;;8.60;5.30;;;;;;;21.17;48.78;100110.50;107818;1271;93380;-70
2022/06/26 01:32:15;;;;;;;7.60;5.30;;;;;;;21.12;48.91;100112.77;107747;1270;137251;-70
2022/06/26 01:34:47;;;;;;;6.00;5.40;;;;;;;21.10;49.02;100113.16;107782;1270;109085;-71
2022/06/26 01:37:20;;;;;;;8.90;5.20;;;;;;;21.07;49.09;100111.06;107623;1271;137475;-70
2022/06/26 01:39:53;;;;;;;7.50;5.10;;;;;;;21.05;49.15;100111.77;106696;1271;95237;-72
2022/06/26 01:42:26;;;;;;;9.90;5.70;;;;;;;21.03;49.05;100116.20;107723;1270;93959;-69
2022/06/26 01:44:58;;;;;;;5.90;5.30;;;;;;;21.00;49.27;100116.21;107432;1270;137765;-70
2022/06/26 01:47:31;;;;;;;9.40;5.30;;;;;;;20.97;49.42;100123.71;106423;1270;108962;-70
2022/06/26 01:50:05;;;;;;;9.00;5.20;;;;;;;20.94;49.33;100122.88;107725;1270;137932;-70
2022/06/26 01:52:38;;;;;;;8.10;5.30;;;;;;;20.90;49.52;100121.23;107731;1271;95198;-71
2022/06/26 01:55:11;;;;;;;10.50;6.10;;;;;;;20.87;49.82;100127.34;107736;1271;138676;-71
2022/06/26 01:57:44;;;;;;;8.50;5.70;;;;;;;20.85;49.76;100128.39;106452;1270;109678;-70
2022/06/26 02:03:19;;;;;;;6.90;5.60;;;;;;;20.79;49.86;100128.48;105520;1268;105848;-71
2022/06/26 02:05:52;;;;;;;7.20;5.60;;;;;;;20.76;50.08;100133.47;107090;1277;96544;-70
2022/06/26 02:08:25;;;;;;;8.30;5.80;;;;;;;20.73;49.82;100138.11;105752;1279;137893;-72
2022/06/26 02:13:52;;;;;;;7.70;5.70;;;;;;;20.66;50.19;100137.23;106066;1277;138679;-70
2022/06/26 02:16:29;;;;;;;10.40;6.10;;;;;;;20.63;50.24;100137.46;107261;1277;109041;-71
2022/06/26 02:19:02;;;;;;;7.00;5.90;;;;;;;20.61;50.07;100140.98;107080;1277;138558;-69
2022/06/26 02:21:38;;;;;;;10.30;6.00;;;;;;;20.58;50.30;100140.33;107291;1277;94757;-70
2022/06/26 02:24:10;;;;;;;8.70;6.10;;;;;;;20.56;50.49;100145.80;106015;1278;111309;-71
2022/06/26 02:26:43;;;;;;;12.20;6.50;;;;;;;20.54;50.48;100143.51;106207;1277;138162;-71
2022/06/26 02:29:16;;;;;;;9.70;6.00;;;;;;;20.51;50.59;100149.15;105989;1277;107892;-71
2022/06/26 02:31:48;;;;;;;7.80;6.10;;;;;;;20.48;50.72;100148.33;105816;1278;139676;-70
2022/06/26 02:34:21;;;;;;;10.00;6.50;;;;;;;20.45;50.77;100150.44;105969;1277;97067;-70
2022/06/26 02:36:54;;;;;;;10.90;6.70;;;;;;;20.44;50.82;100150.22;107304;1277;137641;-70
2022/06/26 02:39:26;;;;;;;11.50;6.20;;;;;;;20.41;50.89;100148.27;107421;1277;109123;-69
2022/06/26 02:41:58;;;;;;;7.90;6.00;;;;;;;20.40;50.92;100147.28;107398;1277;106756;-70
2022/06/26 02:44:32;;;;;;;6.70;6.00;;;;;;;20.39;50.92;100151.42;107278;1277;137724;-71
2022/06/26 02:47:05;;;;;;;8.40;6.10;;;;;;;20.39;51.20;100154.60;106394;1277;96596;-69
2022/06/26 02:49:37;;;;;;;6.70;5.90;;;;;;;20.40;51.00;100157.55;106094;1277;137586;-69
2022/06/26 02:52:10;;;;;;;9.30;5.80;;;;;;;20.40;51.01;100157.00;105912;1278;108879;-71
2022/06/26 02:54:43;;;;;;;10.60;6.30;;;;;;;20.41;50.86;100155.55;106123;1277;108842;-68
2022/06/26 02:57:15;;;;;;;8.90;6.40;;;;;;;20.41;50.95;100159.91;107367;1277;94819;-69
2022/06/26 02:59:48;;;;;;;9.00;6.00;;;;;;;20.41;51.17;100159.55;107014;1277;96521;-70
2022/06/26 03:02:25;;;;;;;6.80;6.10;;;;;;;20.42;51.02;100163.57;105804;1278;138628;-71
2022/06/26 03:05:10;;;;;;;9.00;6.80;;;;;;;20.42;51.06;100163.72;105734;1278;109130;-70
2022/06/26 03:07:43;;;;;;;6.40;5.80;;;;;;;20.43;50.96;100161.89;107092;1277;139061;-70
2022/06/26 03:10:15;;;;;;;7.00;5.80;;;;;;;20.44;50.96;100165.16;106759;1277;96488;-70
2022/06/26 03:12:49;;;;;;;7.40;6.10;;;;;;;20.45;50.83;100167.39;105809;1276;137636;-69
2022/06/26 03:15:22;;;;;;;11.20;6.30;;;;;;;20.46;50.96;100168.55;107280;1278;111139;-69
2022/06/26 03:18:02;;;;;;;7.10;5.40;;;;;;;20.47;50.98;100165.67;106810;1278;107789;-71
2022/06/26 03:20:34;;;;;;;11.10;5.90;;;;;;;20.48;50.94;100167.52;107185;1277;138635;-70
2022/06/26 03:23:07;;;;;;;7.50;5.70;;;;;;;20.50;50.92;100170.59;106110;1277;96577;-70
2022/06/26 03:25:39;;;;;;;7.70;6.00;;;;;;;20.53;50.87;100172.16;107209;1277;137479;-70
2022/06/26 03:28:12;;;;;;;9.40;6.20;;;;;;;20.56;50.87;100178.84;107293;1277;111433;-70
2022/06/26 03:30:45;;;;;;;8.70;5.80;;;;;;;20.58;50.98;100175.84;106062;1278;108964;-72
2022/06/26 03:33:21;;;;;;;7.20;6.20;;;;;;;20.60;50.95;100176.24;107244;1277;108999;-71
2022/06/26 03:35:53;;;;;;;7.00;5.70;;;;;;;20.62;50.91;100180.10;106503;1277;96501;-71
2022/06/26 03:38:26;;;;;;;11.10;6.70;;;;;;;20.66;50.99;100178.59;107191;1277;137461;-71
2022/06/26 03:40:58;;;;;;;15.60;6.10;;;;;;;20.70;50.62;100183.21;107293;1277;112084;-72
2022/06/26 03:43:31;;;;;;;8.70;6.50;;;;;;;20.75;50.66;100183.39;107178;1278;138331;-72
2022/06/26 03:46:03;;;;;;;8.30;5.50;;;;;;;20.80;50.66;100184.17;107262;1277;107653;-72
2022/06/26 03:48:36;;;;;;;7.50;5.50;;;;;;;20.87;50.51;100183.70;107329;1277;94770;-72
2022/06/26 03:51:09;;;;;;;8.30;5.70;;;;;;;20.93;50.43;100189.05;107172;1277;139754;-72
2022/06/26 03:53:43;;;;;;;11.90;6.00;;;;;;;20.99;50.34;100188.27;107259;1278;109068;-70
2022/06/26 03:56:18;;;;;;;6.30;5.60;;;;;;;21.05;50.31;100190.46;107142;1277;138021;-71
2022/06/26 03:58:51;;;;;;;10.20;6.00;;;;;;;21.10;50.09;100194.09;106269;1278;108831;-71
2022/06/26 04:01:24;;;;;;;8.10;6.20;;;;;;;21.17;50.14;100196.09;106323;1277;138330;-71
2022/06/26 04:03:57;;;;;;;7.80;5.60;;;;;;;21.21;49.89;100199.47;107256;1278;94793;-70
2022/06/26 04:06:30;;;;;;;6.60;5.80;;;;;;;21.25;50.19;100196.54;107265;1278;112283;-70
2022/06/26 04:09:09;;;;;;;8.50;5.90;;;;;;;21.29;49.97;100200.33;107203;1277;138264;-71
2022/06/26 04:11:41;;;;;;;8.60;6.30;;;;;;;21.30;49.91;100202.16;106390;1278;107924;-72
2022/06/26 04:14:13;;;;;;;12.40;6.80;;;;;;;21.32;49.68;100198.97;105737;1278;137636;-71
2022/06/26 04:16:46;;;;;;;9.80;6.20;;;;;;;21.37;49.69;100204.13;105860;1279;96433;-70
2022/06/26 04:19:21;;;;;;;6.60;6.00;;;;;;;21.39;49.70;100201.45;105827;1278;138164;-70
2022/06/26 04:21:53;;;;;;;11.50;6.70;;;;;;;21.43;49.88;100201.48;107310;1278;107719;-70
2022/06/26 04:24:26;;;;;;;7.00;6.40;;;;;;;21.46;49.58;100203.42;106149;1277;109014;-70
2022/06/26 04:26:59;;;;;;;10.60;6.00;;;;;;;21.47;49.53;100207.55;105750;1279;137536;-71
2022/06/26 04:29:31;;;;;;;9.50;6.10;;;;;;;21.50;49.54;100209.26;107386;1275;94706;-71
2022/06/26 04:32:07;;;;;;;9.30;6.10;;;;;;;21.54;49.48;100210.02;107155;1277;138509;-71
2022/06/26 04:34:44;;;;;;;8.00;6.20;;;;;;;21.59;49.49;100213.30;106015;1279;107920;-71
2022/06/26 04:37:18;;;;;;;8.60;5.40;;;;;;;21.66;49.37;100213.67;105761;1278;139936;-70
2022/06/26 04:39:51;;;;;;;7.90;5.80;;;;;;;21.72;49.46;100219.88;107278;1277;94876;-71
2022/06/26 04:42:23;;;;;;;9.10;6.30;;;;;;;21.81;49.42;100220.83;105982;1279;97173;-71
2022/06/26 04:44:58;;;;;;;7.60;5.90;;;;;;;21.87;49.07;100220.45;105820;1278;139202;-70
2022/06/26 04:47:30;;;;;;;11.80;5.90;;;;;;;21.92;48.95;100224.16;106427;1277;109874;-70
2022/06/26 04:50:14;;;;;;;8.80;5.50;;;;;;;21.96;48.73;100212.70;107111;1278;138877;-71
2022/06/26 04:52:48;;;;;;;8.00;5.10;;;;;;;22.04;48.76;100216.52;107272;1277;94848;-71
2022/06/26 04:55:21;;;;;;;7.40;5.90;;;;;;;22.12;48.80;100216.58;107250;1277;137655;-72
2022/06/26 04:57:54;;;;;;;6.40;5.50;;;;;;;22.19;48.46;100220.05;107270;1278;110918;-72
2022/06/26 05:00:27;;;;;;;6.90;5.30;;;;;;;22.25;48.41;100225.25;107344;1277;108616;-71
2022/06/26 05:03:23;;;;;;;12.60;5.40;;;;;;;22.31;48.09;100223.33;107260;1277;108886;-72
2022/06/26 05:06:15;;;;;;;9.10;5.60;;;;;;;22.39;47.97;100223.92;105976;1278;96508;-70
2022/06/26 05:08:54;;;;;;;6.10;5.20;;;;;;;22.49;47.80;100229.64;105827;1277;137430;-71
2022/06/26 05:11:27;;;;;;;6.40;5.40;;;;;;;22.57;47.70;100228.81;105931;1278;111273;-71
2022/06/26 05:13:59;;;;;;;6.00;5.40;;;;;;;22.64;47.28;100230.54;105827;1278;137645;-69
2022/06/26 05:16:41;;;;;;;9.20;5.10;;;;;;;22.73;47.19;100232.48;105805;1278;109181;-70
2022/06/26 05:19:16;;;;;;;10.00;5.10;;;;;;;22.85;47.06;100234.17;105821;1277;138249;-70
2022/06/26 05:21:49;;;;;;;6.80;5.20;;;;;;;23.00;47.06;100238.44;107330;1277;94668;-71
2022/06/26 05:24:21;;;;;;;9.10;4.90;;;;;;;23.17;46.72;100240.32;107290;1277;112040;-71
2022/06/26 05:26:54;;;;;;;7.30;4.80;;;;;;;23.36;46.40;100242.09;107147;1278;138357;-71
2022/06/26 05:29:27;;;;;;;5.10;4.60;;;;;;;23.59;46.05;100242.77;107187;1277;109092;-73
2022/06/26 05:32:00;;;;;;;9.30;4.70;;;;;;;23.85;45.22;100245.27;107187;1277;138616;-71
2022/06/26 05:34:33;;;;;;;5.40;4.30;;;;;;;24.03;44.77;100243.72;106184;1277;96387;-71
2022/06/26 05:37:06;;;;;;;7.70;4.80;;;;;;;24.25;44.45;100246.07;107235;1277;137939;-70
2022/06/26 05:39:42;;;;;;;5.70;4.50;;;;;;;24.49;44.33;100245.31;107369;1277;108928;-72
2022/06/26 05:42:14;;;;;;;6.50;4.50;;;;;;;24.71;43.91;100250.18;107323;1277;108788;-71
2022/06/26 05:44:47;;;;;;;8.00;4.50;;;;;;;24.93;43.08;100249.45;106146;1277;139628;-70
2022/06/26 05:47:22;;;;;;;8.90;4.30;;;;;;;25.06;42.44;100257.52;107266;1277;94907;-70
2022/06/26 05:50:13;;;;;;;5.50;4.30;;;;;;;25.23;42.21;100260.66;107228;1277;139335;-71
2022/06/26 05:53:09;;;;;;;8.60;4.00;;;;;;;25.48;42.19;100265.34;107303;1277;110051;-71
2022/06/26 05:55:45;;;;;;;5.10;4.10;;;;;;;25.76;41.87;100262.49;106744;1277;137485;-69
2022/06/26 05:58:36;;;;;;;4.70;3.70;;;;;;;26.12;41.47;100264.13;105978;1278;96615;-70
2022/06/26 06:01:22;;;;;;;9.50;4.10;;;;;;;26.55;40.66;100260.89;105864;1278;137812;-70
2022/06/26 06:03:59;;;;;;;7.50;3.50;;;;;;;27.34;40.03;100261.64;105860;1279;110730;-69
2022/06/26 06:06:32;;;;;;;7.80;3.80;;;;;;;28.52;37.95;100265.19;107304;1277;108828;-70
2022/06/26 06:09:05;;;;;;;6.20;3.50;;;;;;;30.09;35.82;100265.17;107187;1278;138005;-70
2022/06/26 06:11:37;;;;;;;5.50;3.30;;;;;;;31.50;33.33;100259.80;107224;1279;94969;-71
2022/06/26 06:14:10;;;;;;;5.40;3.40;;;;;;;32.60;31.23;100266.30;107206;1278;138299;-70
2022/06/26 06:16:42;;;;;;;6.30;3.20;;;;;;;33.48;29.40;100260.93;107380;1278;111291;-71
2022/06/26 06:19:15;;;;;;;6.00;3.30;;;;;;;34.24;28.95;100265.75;107077;1277;137840;-71
2022/06/26 06:21:49;;;;;;;5.30;3.20;;;;;;;35.18;27.95;100259.04;105937;1278;108629;-69
2022/06/26 06:24:21;;;;;;;7.00;3.10;;;;;;;36.19;27.29;100262.43;105680;1278;96536;-70
2022/06/26 06:26:55;;;;;;;3.50;3.10;;;;;;;36.93;25.36;100272.15;105770;1279;137617;-70
2022/06/26 06:29:28;;;;;;;7.00;3.10;;;;;;;37.34;24.24;100271.84;105949;1279;110792;-70
2022/06/26 06:32:00;;;;;;;5.80;2.70;;;;;;;37.65;23.95;100270.84;107201;1277;137717;-71
2022/06/26 06:34:33;;;;;;;5.00;2.90;;;;;;;38.14;24.02;100266.77;107183;1278;110575;-71
2022/06/26 06:37:06;;;;;;;3.30;2.80;;;;;;;38.78;22.85;100272.95;106922;1278;137671;-72
2022/06/26 06:39:39;;;;;;;7.40;2.80;;;;;;;39.12;22.36;100269.08;106618;1277;96585;-72
2022/06/26 06:42:13;;;;;;;3.40;2.70;;;;;;;39.42;20.91;100272.75;105948;1279;110432;-70
2022/06/26 06:44:45;;;;;;;3.70;2.70;;;;;;;39.53;21.12;100275.70;106576;1278;137516;-70
2022/06/26 06:47:43;;;;;;;3.70;2.60;;;;;;;40.11;20.83;100273.98;105564;1279;108960;-70
2022/06/26 06:50:35;;;;;;;5.50;2.60;;;;;;;40.28;19.99;100281.94;105779;1276;137466;-70
2022/06/26 06:53:08;;;;;;;3.00;2.50;;;;;;;40.49;20.03;100282.90;107311;1278;94590;-71
2022/06/26 06:55:40;;;;;;;4.50;2.40;;;;;;;40.73;19.97;100282.64;107255;1279;138834;-71
2022/06/26 06:58:14;;;;;;;5.00;2.40;;;;;;;41.27;19.63;100285.27;107317;1278;108797;-71
2022/06/26 07:00:48;;;;;;;5.00;2.60;;;;;;;41.62;18.80;100282.55;107193;1278;138265;-71
2022/06/26 07:03:21;;;;;;;3.90;2.40;;;;;;;41.59;18.58;100287.73;107286;1277;94674;-71
2022/06/26 07:05:54;;;;;;;3.00;2.30;;;;;;;41.54;17.75;100287.06;107354;1277;94578;-71
2022/06/26 07:08:26;;;;;;;5.00;2.50;;;;;;;41.22;17.86;100287.48;107245;1278;137340;-72
2022/06/26 07:11:00;;;;;;;4.50;2.50;;;;;;;41.15;17.90;100289.55;107323;1277;109275;-73
2022/06/26 07:13:32;;;;;;;2.10;1.80;;;;;;;40.94;17.46;100294.52;106389;1279;137719;-71
2022/06/26 07:16:06;;;;;;;5.40;2.30;;;;;;;40.57;17.40;100285.13;105818;1279;96532;-71
2022/06/26 07:18:38;;;;;;;4.80;2.30;;;;;;;40.35;17.43;100289.61;107371;1277;94868;-71
2022/06/26 07:21:11;;;;;;;4.50;2.40;;;;;;;40.17;17.53;100290.98;106814;1277;137460;-72
2022/06/26 07:23:43;;;;;;;4.80;2.40;;;;;;;40.05;17.61;100285.62;105928;1277;107752;-71
2022/06/26 07:26:27;;;;;;;3.80;2.20;;;;;;;39.98;17.98;100286.05;107129;1279;137733;-72
2022/06/26 07:29:00;;;;;;;5.30;2.60;;;;;;;40.43;18.24;100289.27;105964;1279;96484;-71
2022/06/26 07:31:42;;;;;;;3.60;2.10;;;;;;;40.80;17.90;100291.91;105648;1279;138614;-72
2022/06/26 07:34:19;;;;;;;6.00;2.40;;;;;;;40.74;17.19;100293.77;105886;1279;110900;-71
2022/06/26 07:36:52;;;;;;;4.90;2.60;;;;;;;40.58;17.10;100285.70;107220;1278;138237;-71
2022/06/26 07:39:25;;;;;;;4.50;2.00;;;;;;;40.49;16.92;100287.05;106972;1279;108792;-71
2022/06/26 07:41:57;;;;;;;2.70;2.00;;;;;;;40.35;17.37;100287.08;107350;1277;94748;-72
2022/06/26 07:44:35;;;;;;;3.90;2.00;;;;;;;40.36;17.10;100293.14;107178;1278;139922;-71
2022/06/26 07:47:07;;;;;;;3.10;2.30;;;;;;;39.99;16.75;100294.39;107269;1278;110078;-72
2022/06/26 07:50:10;;;;;;;4.20;2.30;;;;;;;39.24;17.70;100294.40;107043;1278;138123;-72
2022/06/26 07:52:42;;;;;;;2.60;2.40;;;;;;;39.22;18.29;100291.45;107294;1278;108937;-73
2022/06/26 07:55:16;;;;;;;5.00;2.50;;;;;;;39.51;18.52;100289.35;106312;1278;137735;-72
2022/06/26 07:57:49;;;;;;;4.40;2.20;;;;;;;40.01;18.36;100287.91;105977;1278;96708;-71
2022/06/26 08:00:22;;;;;;;3.50;2.20;;;;;;;40.42;17.94;100287.25;107341;1278;110174;-71
2022/06/26 08:02:54;;;;;;;5.60;2.20;;;;;;;40.40;17.65;100281.31;107209;1277;137718;-71
2022/06/26 08:05:27;;;;;;;3.40;2.10;;;;;;;40.36;17.27;100291.33;107329;1278;108232;-70
2022/06/26 08:07:59;;;;;;;6.20;2.30;;;;;;;39.99;17.50;100282.54;105845;1278;137598;-70
2022/06/26 08:10:39;;;;;;;3.30;2.10;;;;;;;39.85;17.68;100294.50;107332;1278;94876;-72
2022/06/26 08:13:12;;;;;;;2.90;2.20;;;;;;;39.42;17.26;100301.35;107226;1278;137605;-70
2022/06/26 08:15:44;;;;;;;3.50;2.30;;;;;;;38.87;17.91;100296.98;107346;1277;107963;-70
2022/06/26 08:18:16;;;;;;;6.00;2.00;;;;;;;38.64;17.89;100298.98;107312;1278;107930;-70
2022/06/26 08:20:49;;;;;;;5.90;2.30;;;;;;;38.36;17.96;100297.45;107178;1278;138690;-71
2022/06/26 08:23:21;;;;;;;5.80;2.10;;;;;;;38.07;18.23;100291.98;107172;1277;94877;-69
2022/06/26 08:25:55;;;;;;;3.40;2.20;;;;;;;37.65;18.62;100294.66;105872;1278;137407;-72
2022/06/26 08:28:27;;;;;;;5.50;2.30;;;;;;;37.44;18.95;100304.89;107364;1277;108411;-72
2022/06/26 08:30:59;;;;;;;5.90;2.30;;;;;;;37.06;18.96;100301.08;106891;1279;139402;-70
2022/06/26 08:33:32;;;;;;;3.50;2.10;;;;;;;36.58;19.14;100307.98;106186;1278;96499;-70
2022/06/26 08:36:05;;;;;;;2.70;2.20;;;;;;;36.41;19.68;100293.06;107346;1278;94739;-71
2022/06/26 08:38:39;;;;;;;4.90;2.10;;;;;;;36.57;20.11;100291.48;107224;1278;137644;-70
2022/06/26 08:41:14;;;;;;;5.90;2.40;;;;;;;36.60;19.67;100293.21;107366;1278;108974;-70
2022/06/26 08:43:48;;;;;;;5.90;2.30;;;;;;;36.90;20.52;100289.13;107215;1278;138752;-71
2022/06/26 08:46:23;;;;;;;3.80;2.30;;;;;;;37.17;19.65;100301.34;107317;1277;94740;-70
2022/06/26 08:49:02;;;;;;;3.10;2.30;;;;;;;36.83;19.70;100300.11;106225;1278;137795;-70
2022/06/26 08:51:36;;;;;;;5.00;2.50;;;;;;;36.62;20.01;100294.70;106396;1278;111270;-72
2022/06/26 08:54:12;;;;;;;5.60;2.50;;;;;;;36.68;20.57;100287.90;107272;1278;109160;-71
2022/06/26 08:56:47;;;;;;;2.50;2.00;;;;;;;37.00;19.84;100296.80;106419;1278;137625;-70
2022/06/26 08:59:20;;;;;;;4.90;2.50;;;;;;;36.75;19.33;100292.14;106675;1278;96389;-71
2022/06/26 09:01:53;;;;;;;4.50;2.00;;;;;;;36.48;19.73;100295.84;107089;1278;138424;-72
2022/06/26 09:04:25;;;;;;;4.20;2.20;;;;;;;36.29;19.98;100290.52;107293;1278;111089;-70
2022/06/26 09:06:58;;;;;;;3.50;2.00;;;;;;;36.19;20.18;100293.02;106608;1277;137987;-71
2022/06/26 09:09:31;;;;;;;2.70;2.20;;;;;;;35.87;20.18;100302.34;105656;1278;109077;-72
2022/06/26 09:12:05;;;;;;;3.10;2.30;;;;;;;35.45;20.71;100290.13;106556;1278;96599;-70
2022/06/26 09:14:37;;;;;;;2.90;2.20;;;;;;;35.28;21.04;100286.06;107235;1277;138202;-72
2022/06/26 09:17:10;;;;;;;3.90;2.30;;;;;;;35.13;21.30;100279.68;106925;1279;110417;-71
2022/06/26 09:19:55;;;;;;;3.20;2.50;;;;;;;34.99;21.37;100292.52;106870;1277;138769;-72
2022/06/26 09:22:28;;;;;;;3.00;2.30;;;;;;;34.79;21.64;100297.41;107315;1277;107865;-71
2022/06/26 09:25:01;;;;;;;3.80;1.90;;;;;;;34.49;21.82;100299.80;106325;1279;138145;-72
2022/06/26 09:27:40;;;;;;;6.40;2.50;;;;;;;34.21;22.14;100290.18;105914;1278;96515;-69
2022/06/26 09:30:13;;;;;;;6.30;2.50;;;;;;;34.32;21.98;100296.28;106070;1277;110120;-71
2022/06/26 09:32:55;;;;;;;3.40;2.30;;;;;;;34.27;21.67;100315.61;106809;1279;137828;-70
2022/06/26 09:35:27;;;;;;;3.70;2.20;;;;;;;33.86;22.22;100313.30;107337;1277;108949;-73
2022/06/26 09:38:02;;;;;;;5.40;2.20;;;;;;;33.67;22.45;100306.70;107209;1278;138582;-71
2022/06/26 09:40:34;;;;;;;6.30;2.60;;;;;;;33.56;22.50;100300.89;107344;1277;94878;-71
2022/06/26 09:43:07;;;;;;;4.60;2.10;;;;;;;33.51;22.23;100300.31;107256;1278;137537;-73
2022/06/26 09:45:42;;;;;;;2.60;2.20;;;;;;;33.42;22.43;100306.75;107354;1278;108304;-71
2022/06/26 09:48:16;;;;;;;4.70;2.20;;;;;;;33.32;22.16;100307.09;105701;1278;415546;-71
2022/06/26 09:50:51;;;;;;;3.50;2.30;;;;;;;33.28;22.19;100299.86;107207;1278;138304;-71
2022/06/26 09:53:25;;;;;;;4.00;2.30;;;;;;;33.41;22.71;100298.79;107329;1278;94613;-71
2022/06/26 09:55:59;;;;;;;5.20;2.60;;;;;;;33.54;22.55;100320.10;107253;1278;137937;-71
2022/06/26 09:58:32;;;;;;;4.00;2.20;;;;;;;33.41;22.42;100306.19;107361;1278;109295;-71
2022/06/26 10:06:47;;;;;;;5.90;2.40;;;;;;;33.07;22.77;100305.05;105987;1279;96419;-71
2022/06/26 10:09:21;;;;;;;4.10;2.50;;;;;;;33.04;22.88;100289.58;105870;1278;111238;-71
2022/06/26 10:11:54;;;;;;;4.40;2.10;;;;;;;33.05;22.71;100290.52;105887;1278;108384;-72
2022/06/26 10:14:31;;;;;;;2.20;2.00;;;;;;;32.90;22.54;100281.98;107160;1278;137750;-71
2022/06/26 10:17:30;;;;;;;6.70;2.30;;;;;;;32.90;23.04;100282.56;107290;1277;94706;-71
2022/06/26 10:20:06;;;;;;;5.20;2.30;;;;;;;32.98;23.30;100279.55;107178;1277;137291;-70
2022/06/26 10:22:42;;;;;;;5.80;2.80;;;;;;;33.15;23.46;100279.16;107319;1278;110125;-72
2022/06/26 10:25:25;;;;;;;2.70;2.20;;;;;;;33.41;23.19;100284.15;106853;1277;137738;-70
2022/06/26 10:27:59;;;;;;;6.20;2.20;;;;;;;33.40;22.83;100275.63;105896;1278;108431;-70
2022/06/26 10:30:33;;;;;;;2.60;2.10;;;;;;;33.46;22.80;100271.95;107335;1278;94675;-71
2022/06/26 10:33:14;;;;;;;4.70;2.30;;;;;;;33.50;22.72;100267.52;107216;1278;137562;-72
2022/06/26 10:35:50;;;;;;;3.90;2.40;;;;;;;33.37;22.44;100265.45;107334;1278;111118;-71
2022/06/26 10:38:24;;;;;;;3.90;2.60;;;;;;;33.17;22.65;100294.40;107198;1278;138073;-71
2022/06/26 10:44:04;;;;;;;4.00;2.40;;;;;;;32.44;23.40;100282.13;107218;1278;139340;-72
2022/06/26 10:46:45;;;;;;;8.80;2.20;;;;;;;32.18;23.49;100274.02;107312;1278;94616;-71
2022/06/26 10:49:17;;;;;;;2.70;2.20;;;;;;;31.98;23.98;100278.27;105789;1278;137698;-71
2022/06/26 10:51:50;;;;;;;3.40;2.20;;;;;;;31.79;23.98;100275.71;107330;1277;108981;-71
2022/06/26 10:54:24;;;;;;;4.10;2.40;;;;;;;31.71;24.33;100271.70;107361;1277;108851;-71
2022/06/26 10:57:13;;;;;;;4.80;2.30;;;;;;;31.73;24.18;100273.91;107227;1277;137984;-69
2022/06/26 10:59:46;;;;;;;2.90;2.60;;;;;;;31.84;24.58;100280.14;106693;1277;96542;-69
2022/06/26 11:02:19;;;;;;;2.30;2.00;;;;;;;31.83;23.95;100284.64;105804;1278;137635;-71
2022/06/26 11:04:52;;;;;;;6.80;2.20;;;;;;;31.60;24.03;100275.86;107346;1278;109912;-69
2022/06/26 11:07:25;;;;;;;2.60;2.30;;;;;;;31.47;24.17;100276.40;107220;1277;137797;-69
2022/06/26 11:10:00;;;;;;;7.00;2.50;;;;;;;31.35;24.69;100269.78;107070;1278;95563;-69
2022/06/26 11:12:41;;;;;;;4.40;2.10;;;;;;;31.23;24.91;100267.73;107344;1278;94782;-70
2022/06/26 11:15:32;;;;;;;3.70;2.60;;;;;;;31.21;25.14;100261.98;107304;1277;111370;-68
2022/06/26 11:18:06;;;;;;;3.40;2.30;;;;;;;31.16;24.67;100270.48;106392;1279;108909;-69
2022/06/26 11:20:50;;;;;;;3.30;2.30;;;;;;;30.97;25.38;100265.98;107259;1277;137532;-71
2022/06/26 11:23:24;;;;;;;4.60;2.30;;;;;;;30.91;25.80;100278.36;106475;1277;96500;-70
2022/06/26 11:26:01;;;;;;;5.80;2.60;;;;;;;30.75;26.07;100280.04;105838;1277;137379;-70
2022/06/26 11:28:33;;;;;;;;;;;;;;;30.57;26.19;100276.00;105900;1278;111374;-69
2022/06/26 11:31:08;;;;;;;9.30;2.90;;;;;;;30.52;26.19;100268.65;107266;1278;124458;-70
2022/06/26 11:33:42;;;;;;;4.20;2.60;;;;;;;30.45;26.12;100273.98;107353;1277;107670;-70
2022/06/26 11:36:16;;;;;;;5.10;2.10;;;;;;;30.47;25.80;100270.90;107296;1279;94735;-70
2022/06/26 11:38:55;;;;;;;2.60;2.30;;;;;;;30.50;25.99;100268.80;107216;1277;137882;-70
2022/06/26 11:41:28;;;;;;;5.90;2.80;;;;;;;30.51;26.32;100275.27;106268;1279;109975;-70
2022/06/26 11:44:01;;;;;;;3.30;2.60;;;;;;;30.47;26.43;100263.44;105858;1279;139896;-71
2022/06/26 11:46:33;;;;;;;3.50;2.40;;;;;;;30.39;26.97;100274.69;106768;1278;109155;-70
2022/06/26 11:49:09;;;;;;;6.50;2.70;;;;;;;30.33;27.06;100265.12;106049;1278;138342;-71
2022/06/26 11:51:41;;;;;;;3.40;2.60;;;;;;;30.41;27.14;100259.61;105937;1279;96622;-69
2022/06/26 11:54:25;;;;;;;5.50;2.40;;;;;;;30.54;27.19;100255.38;105945;1278;111513;-69
2022/06/26 11:56:58;;;;;;;4.00;2.40;;;;;;;30.64;26.97;100253.53;107198;1279;137490;-69
2022/06/26 11:59:30;;;;;;;4.10;2.50;;;;;;;30.64;26.78;100256.39;107317;1277;109247;-69